createdAt,value
2023-04-15T00:02:24.654Z,3.13
2023-04-15T00:04:53.390Z,3.10
2023-04-15T00:07:21.983Z,3.57
2023-04-15T00:09:55.038Z,3.63
2023-04-15T00:12:23.650Z,3.60
2023-04-15T00:14:52.266Z,3.70
2023-04-15T00:17:21.258Z,3.73
2023-04-15T00:19:49.878Z,3.40
2023-04-15T00:22:18.720Z,3.97
2023-04-15T00:24:47.338Z,4.20
2023-04-15T00:27:17.265Z,3.10
2023-04-15T00:29:45.902Z,3.37
2023-04-15T00:32:14.544Z,3.23
2023-04-15T00:34:43.405Z,3.80
2023-04-15T00:37:12.569Z,3.83
2023-04-15T00:39:41.234Z,3.23
2023-04-15T00:42:10.567Z,3.67
2023-04-15T00:44:40.989Z,3.83
2023-04-15T00:47:10.046Z,4.07
2023-04-15T00:49:38.666Z,3.30
2023-04-15T00:52:07.309Z,4.30
2023-04-15T00:54:36.406Z,3.70
2023-04-15T00:57:06.715Z,3.33
2023-04-15T00:59:35.597Z,5.00
2023-04-15T01:02:05.843Z,4.27
2023-04-15T01:04:34.541Z,4.07
2023-04-15T01:07:03.388Z,4.20
2023-04-15T01:09:32.134Z,3.77
2023-04-15T01:12:00.749Z,4.10
2023-04-15T01:14:30.180Z,4.40
2023-04-15T01:16:58.900Z,4.40
2023-04-15T01:19:28.959Z,3.60
2023-04-15T01:21:57.555Z,4.37
2023-04-15T01:24:27.904Z,4.17
2023-04-15T01:26:58.471Z,4.00
2023-04-15T01:29:27.380Z,3.60
2023-04-15T01:31:57.440Z,3.70
2023-04-15T01:34:26.336Z,3.80
2023-04-15T01:36:54.923Z,3.60
2023-04-15T01:39:23.569Z,4.03
2023-04-15T01:41:52.271Z,4.00
2023-04-15T01:44:22.683Z,3.60
2023-04-15T01:46:51.311Z,3.50
2023-04-15T01:49:20.063Z,4.00
2023-04-15T01:51:48.750Z,4.30
2023-04-15T01:54:17.356Z,3.90
2023-04-15T01:56:45.921Z,3.93
2023-04-15T01:59:14.631Z,4.17
2023-04-15T02:01:45.181Z,3.60
2023-04-15T02:04:16.619Z,3.73
2023-04-15T02:06:45.251Z,3.60
2023-04-15T02:09:14.036Z,4.73
2023-04-15T02:11:42.654Z,3.90
2023-04-15T02:14:11.253Z,3.87
2023-04-15T02:16:39.947Z,4.27
2023-04-15T02:19:10.024Z,4.50
2023-04-15T02:21:38.619Z,3.83
2023-04-15T02:24:07.754Z,3.30
2023-04-15T02:26:36.378Z,3.70
2023-04-15T02:29:05.120Z,3.27
2023-04-15T02:31:36.956Z,4.50
2023-04-15T02:34:05.833Z,3.33
2023-04-15T02:36:35.751Z,4.30
2023-04-15T02:39:04.497Z,3.53
2023-04-15T02:41:33.205Z,3.40
2023-04-15T02:44:03.023Z,3.80
2023-04-15T02:46:32.248Z,3.80
2023-04-15T02:49:01.234Z,3.40
2023-04-15T02:51:31.983Z,3.73
2023-04-15T02:54:01.967Z,3.93
2023-04-15T02:56:31.294Z,3.67
2023-04-15T02:59:00.050Z,3.47
2023-04-15T03:01:28.834Z,3.77
2023-04-15T03:03:57.500Z,3.73
2023-04-15T03:06:26.274Z,3.30
2023-04-15T03:08:54.859Z,3.30
2023-04-15T03:11:24.821Z,3.00
2023-04-15T03:13:53.372Z,3.60
2023-04-15T03:16:22.329Z,3.20
2023-04-15T03:18:51.061Z,3.40
2023-04-15T03:21:20.001Z,3.17
2023-04-15T03:23:49.830Z,3.40
2023-04-15T03:26:29.862Z,4.60
2023-04-15T03:28:59.084Z,3.53
2023-04-15T03:31:27.935Z,3.43
2023-04-15T03:33:56.649Z,3.70
2023-04-15T03:36:25.256Z,3.77
2023-04-15T03:38:53.987Z,4.37
2023-04-15T03:41:22.581Z,3.67
2023-04-15T03:43:52.734Z,4.40
2023-04-15T03:46:21.523Z,2.97
2023-04-15T03:48:50.180Z,3.70
2023-04-15T03:51:18.967Z,3.80
2023-04-15T03:53:47.543Z,3.30
2023-04-15T03:56:16.148Z,3.23
2023-04-15T03:58:44.853Z,3.70
2023-04-15T04:01:14.961Z,3.80
2023-04-15T04:03:43.753Z,3.83
2023-04-15T04:06:12.734Z,3.80
2023-04-15T04:08:41.433Z,3.47
2023-04-15T04:11:10.215Z,3.77
2023-04-15T04:13:38.814Z,3.53
2023-04-15T04:16:08.275Z,3.30
2023-04-15T04:18:38.407Z,3.90
2023-04-15T04:21:07.456Z,3.73
2023-04-15T04:23:36.029Z,3.80
2023-04-15T04:26:04.658Z,3.67
2023-04-15T04:28:33.366Z,3.50
2023-04-15T04:31:02.361Z,3.70
2023-04-15T04:33:31.028Z,3.30
2023-04-15T04:36:00.997Z,3.70
2023-04-15T04:38:29.520Z,4.00
2023-04-15T04:40:58.183Z,3.30
2023-04-15T04:43:27.127Z,3.87
2023-04-15T04:45:55.828Z,3.17
2023-04-15T04:48:24.534Z,3.70
2023-04-15T04:50:53.321Z,3.77
2023-04-15T04:53:23.404Z,3.50
2023-04-15T04:55:52.222Z,3.90
2023-04-15T04:58:21.388Z,3.90
2023-04-15T05:00:50.004Z,3.67
2023-04-15T05:03:19.101Z,3.80
2023-04-15T05:05:49.318Z,3.40
2023-04-15T05:08:17.982Z,4.50
2023-04-15T05:10:47.941Z,3.60
2023-04-15T05:13:16.525Z,4.00
2023-04-15T05:15:45.430Z,3.50
2023-04-15T05:18:14.061Z,3.53
2023-04-15T05:20:42.664Z,3.90
2023-04-15T05:23:11.250Z,3.70
2023-04-15T05:25:39.872Z,3.90
2023-04-15T05:28:09.829Z,3.43
2023-04-15T05:30:38.423Z,4.23
2023-04-15T05:33:07.179Z,3.77
2023-04-15T05:35:35.842Z,4.60
2023-04-15T05:38:04.433Z,3.60
2023-04-15T05:40:33.062Z,4.17
2023-04-15T05:43:01.782Z,3.50
2023-04-15T05:45:32.499Z,4.43
2023-04-15T05:48:01.213Z,3.97
2023-04-15T05:50:29.958Z,4.00
2023-04-15T05:52:58.679Z,3.40
2023-04-15T05:55:27.433Z,3.53
2023-04-15T05:57:56.039Z,4.10
2023-04-15T06:00:24.590Z,3.70
2023-04-15T06:02:54.801Z,4.10
2023-04-15T06:05:24.073Z,3.85
2023-04-15T06:07:52.760Z,3.30
2023-04-15T06:10:21.422Z,3.97
2023-04-15T06:12:50.086Z,3.70
2023-04-15T06:15:18.843Z,3.80
2023-04-15T06:17:47.543Z,2.97
2023-04-15T06:20:17.739Z,3.30
2023-04-15T06:22:46.426Z,4.00
2023-04-15T06:25:15.081Z,3.33
2023-04-15T06:27:43.910Z,3.53
2023-04-15T06:30:14.780Z,3.40
2023-04-15T06:32:43.646Z,3.20
2023-04-15T06:35:13.783Z,3.50
2023-04-15T06:37:43.730Z,3.37
2023-04-15T06:40:13.319Z,2.90
2023-04-15T06:42:41.914Z,3.37
2023-04-15T06:45:11.475Z,4.10
2023-04-15T06:47:40.821Z,2.90
2023-04-15T06:50:11.421Z,3.40
2023-04-15T06:52:40.025Z,4.20
2023-04-15T06:55:10.770Z,3.50
2023-04-15T06:57:39.526Z,3.10
2023-04-15T07:00:11.125Z,3.30
2023-04-15T07:02:39.773Z,3.50
2023-04-15T07:05:08.802Z,3.23
2023-04-15T07:07:38.271Z,4.00
2023-04-15T07:10:08.259Z,3.53
2023-04-15T07:12:38.470Z,4.00
2023-04-15T07:15:08.245Z,4.20
2023-04-15T07:17:37.094Z,3.23
2023-04-15T07:20:06.430Z,3.20
2023-04-15T07:22:35.076Z,3.97
2023-04-15T07:25:03.737Z,3.67
2023-04-15T07:27:32.478Z,3.57
2023-04-15T07:30:02.483Z,3.07
2023-04-15T07:32:31.114Z,3.30
2023-04-15T07:35:00.175Z,3.40
2023-04-15T07:37:29.618Z,3.50
2023-04-15T07:39:58.397Z,3.10
2023-04-15T07:42:27.043Z,3.97
2023-04-15T07:44:55.831Z,3.97
2023-04-15T07:47:26.333Z,3.70
2023-04-15T07:49:54.947Z,3.10
2023-04-15T07:52:23.542Z,4.07
2023-04-15T07:54:52.173Z,3.80
2023-04-15T07:57:21.063Z,3.87
2023-04-15T07:59:49.712Z,3.50
2023-04-15T08:02:18.410Z,3.30
2023-04-15T08:04:48.728Z,3.40
2023-04-15T08:07:18.082Z,4.33
2023-04-15T08:09:46.953Z,3.63
2023-04-15T08:12:15.932Z,4.10
2023-04-15T08:14:44.680Z,3.50
2023-04-15T08:17:13.375Z,3.80
2023-04-15T08:19:42.410Z,3.70
2023-04-15T08:22:18.031Z,3.43
2023-04-15T08:24:47.342Z,3.20
2023-04-15T08:27:15.970Z,3.40
2023-04-15T08:29:45.567Z,3.40
2023-04-15T08:32:14.893Z,3.10
2023-04-15T08:34:43.535Z,3.80
2023-04-15T08:37:13.627Z,3.00
2023-04-15T08:39:42.282Z,3.10
2023-04-15T08:42:13.650Z,3.30
2023-04-15T08:44:42.550Z,3.17
2023-04-15T08:47:14.188Z,4.00
2023-04-15T08:49:44.109Z,3.60
2023-04-15T08:52:14.376Z,3.80
2023-04-15T08:54:43.125Z,3.07
2023-04-15T08:57:12.001Z,3.33
2023-04-15T08:59:40.800Z,3.67
2023-04-15T09:02:09.576Z,3.07
2023-04-15T09:04:38.220Z,2.77
2023-04-15T09:07:06.852Z,3.20
2023-04-15T09:09:37.502Z,3.17
2023-04-15T09:12:06.106Z,3.37
2023-04-15T09:14:35.082Z,2.93
2023-04-15T09:17:04.951Z,2.97
2023-04-15T09:19:34.665Z,3.30
2023-04-15T09:22:03.847Z,3.50
2023-04-15T09:24:39.719Z,2.63
2023-04-15T09:27:08.852Z,2.83
2023-04-15T09:29:38.386Z,2.30
2023-04-15T09:32:14.732Z,2.03
2023-04-15T09:34:44.533Z,2.87
2023-04-15T09:37:24.497Z,2.27
2023-04-15T09:39:58.961Z,2.30
2023-04-15T09:42:29.116Z,2.03
2023-04-15T09:44:58.161Z,2.30
2023-04-15T09:47:30.460Z,3.03
2023-04-15T09:49:59.813Z,2.33
2023-04-15T09:52:29.562Z,2.30
2023-04-15T09:55:00.868Z,2.70
2023-04-15T09:57:35.609Z,2.70
2023-04-15T10:00:05.173Z,2.60
2023-04-15T10:02:37.185Z,2.80
2023-04-15T10:05:07.222Z,3.13
2023-04-15T10:07:36.147Z,3.10
2023-04-15T10:10:07.544Z,2.70
2023-04-15T10:12:38.528Z,2.40
2023-04-15T10:15:08.115Z,2.60
2023-04-15T10:17:37.289Z,2.50
2023-04-15T10:20:07.637Z,2.40
2023-04-15T10:22:36.685Z,2.60
2023-04-15T10:25:07.793Z,2.70
2023-04-15T10:27:37.250Z,2.30
2023-04-15T10:30:07.679Z,2.00
2023-04-15T10:32:36.665Z,2.03
2023-04-15T10:35:06.685Z,1.93
2023-04-15T10:37:37.388Z,1.90
2023-04-15T10:40:27.219Z,2.10
2023-04-15T10:42:56.976Z,2.00
2023-04-15T10:45:28.202Z,1.90
2023-04-15T10:47:58.168Z,2.00
2023-04-15T10:50:28.230Z,2.00
2023-04-15T10:52:57.805Z,2.60
2023-04-15T10:55:28.325Z,2.03
2023-04-15T10:58:00.865Z,2.20
2023-04-15T11:00:31.431Z,2.07
2023-04-15T11:03:01.158Z,2.47
2023-04-15T11:05:51.523Z,2.33
2023-04-15T11:08:20.973Z,2.20
2023-04-15T11:10:57.727Z,2.07
2023-04-15T11:13:28.837Z,2.40
2023-04-15T11:16:02.096Z,2.20
2023-04-15T11:18:32.864Z,2.13
2023-04-15T11:21:03.771Z,2.30
2023-04-15T11:23:34.494Z,1.90
2023-04-15T11:26:09.193Z,2.00
2023-04-15T11:28:39.196Z,1.80
2023-04-15T11:31:10.749Z,2.60
2023-04-15T11:33:45.791Z,2.57
2023-04-15T11:36:14.802Z,2.70
2023-04-15T11:38:44.277Z,2.20
2023-04-15T11:41:14.317Z,2.97
2023-04-15T11:43:43.334Z,2.60
2023-04-15T11:46:11.985Z,2.57
2023-04-15T11:48:45.232Z,3.10
2023-04-15T11:51:15.345Z,3.10
2023-04-15T11:53:46.330Z,3.40
2023-04-15T11:56:21.272Z,3.80
2023-04-15T11:58:53.690Z,3.50
2023-04-15T12:01:23.141Z,2.90
2023-04-15T12:03:52.470Z,2.47
2023-04-15T12:06:22.951Z,4.27
2023-04-15T12:09:15.681Z,3.30
2023-04-15T12:11:47.150Z,3.50
2023-04-15T12:14:23.308Z,3.70
2023-04-15T12:16:53.964Z,4.50
2023-04-15T12:19:27.631Z,4.57
2023-04-15T12:22:00.645Z,3.27
2023-04-15T12:24:32.740Z,3.60
2023-04-15T12:27:06.068Z,3.60
2023-04-15T12:29:36.735Z,3.20
2023-04-15T12:32:07.666Z,2.70
2023-04-15T12:34:37.721Z,2.83
2023-04-15T12:37:07.633Z,2.20
2023-04-15T12:39:37.233Z,3.43
2023-04-15T12:42:07.716Z,3.17
2023-04-15T12:44:36.714Z,3.50
2023-04-15T12:47:05.705Z,3.67
2023-04-15T12:49:35.579Z,3.53
2023-04-15T12:52:04.913Z,3.77
2023-04-15T12:54:34.324Z,3.67
2023-04-15T12:57:06.414Z,2.80
2023-04-15T12:59:37.482Z,3.10
2023-04-15T13:02:06.329Z,3.20
2023-04-15T13:04:35.119Z,3.90
2023-04-15T13:07:03.923Z,3.23
2023-04-15T13:09:33.414Z,2.80
2023-04-15T13:12:03.054Z,2.67
2023-04-15T13:14:32.002Z,3.33
2023-04-15T13:17:04.361Z,2.70
2023-04-15T13:19:33.433Z,3.17
2023-04-15T13:22:02.444Z,2.70
2023-04-15T13:24:31.963Z,2.70
2023-04-15T13:27:00.953Z,2.77
2023-04-15T13:29:29.562Z,3.00
2023-04-15T13:31:58.211Z,3.00
2023-04-15T13:34:28.199Z,3.20
2023-04-15T13:36:56.847Z,2.50
2023-04-15T13:39:25.561Z,2.73
2023-04-15T13:41:54.250Z,2.30
2023-04-15T13:44:23.863Z,3.53
2023-04-15T13:46:53.779Z,3.40
2023-04-15T13:49:22.497Z,3.60
2023-04-15T13:51:52.769Z,2.87
2023-04-15T13:54:21.551Z,3.50
2023-04-15T13:56:50.416Z,3.00
2023-04-15T13:59:19.165Z,3.60
2023-04-15T14:01:47.847Z,2.83
2023-04-15T14:04:16.675Z,2.23
2023-04-15T14:06:45.748Z,1.77
2023-04-15T14:09:15.774Z,1.20
2023-04-15T14:11:44.563Z,1.67
2023-04-15T14:14:15.236Z,2.03
2023-04-15T14:16:44.985Z,1.23
2023-04-15T14:19:13.614Z,1.10
2023-04-15T14:21:42.265Z,1.53
2023-04-15T14:24:11.006Z,1.10
2023-04-15T14:26:41.102Z,0.80
2023-04-15T14:29:10.392Z,1.10
2023-04-15T14:31:39.117Z,0.90
2023-04-15T14:34:10.025Z,1.00
2023-04-15T14:36:39.797Z,1.30
2023-04-15T14:39:09.596Z,1.53
2023-04-15T14:41:38.650Z,0.90
2023-04-15T14:44:11.484Z,1.50
2023-04-15T14:46:40.681Z,1.10
2023-04-15T14:49:09.483Z,1.00
2023-04-15T14:51:39.217Z,1.03
2023-04-15T14:54:09.390Z,1.37
2023-04-15T14:56:37.994Z,1.00
2023-04-15T14:59:08.156Z,1.40
2023-04-15T15:01:36.920Z,1.53
2023-04-15T15:04:05.742Z,1.10
2023-04-15T15:06:34.526Z,1.20
2023-04-15T15:09:03.558Z,1.20
2023-04-15T15:11:32.638Z,1.20
2023-04-15T15:14:01.278Z,1.03
2023-04-15T15:16:31.612Z,1.27
2023-04-15T15:19:00.301Z,1.30
2023-04-15T15:21:28.955Z,1.13
2023-04-15T15:23:57.789Z,1.27
2023-04-15T15:26:28.037Z,1.00
2023-04-15T15:28:57.355Z,1.27
2023-04-15T15:31:26.017Z,1.20
2023-04-15T15:33:55.986Z,1.40
2023-04-15T15:36:24.641Z,0.90
2023-04-15T15:38:53.256Z,0.80
2023-04-15T15:41:22.223Z,2.37
2023-04-15T15:43:50.946Z,1.30
2023-04-15T15:46:19.684Z,1.23
2023-04-15T15:48:48.678Z,1.17
2023-04-15T15:51:18.644Z,1.47
2023-04-15T15:53:47.268Z,1.10
2023-04-15T15:56:15.962Z,1.50
2023-04-15T15:58:45.052Z,1.60
2023-04-15T16:01:13.856Z,1.40
2023-04-15T16:03:42.922Z,2.00
2023-04-15T16:06:11.658Z,1.83
2023-04-15T16:08:41.618Z,1.30
2023-04-15T16:11:10.335Z,1.57
2023-04-15T16:13:38.976Z,1.63
2023-04-15T16:16:08.125Z,1.40
2023-04-15T16:18:36.764Z,1.33
2023-04-15T16:21:06.312Z,1.30
2023-04-15T16:23:35.080Z,1.20
2023-04-15T16:26:05.164Z,1.73
2023-04-15T16:28:33.853Z,2.10
2023-04-15T16:31:02.857Z,2.30
2023-04-15T16:33:31.888Z,2.00
2023-04-15T16:36:01.132Z,2.10
2023-04-15T16:38:30.516Z,1.97
2023-04-15T16:41:01.172Z,1.63
2023-04-15T16:43:31.642Z,1.90
2023-04-15T16:46:02.276Z,1.90
2023-04-15T16:48:31.275Z,1.83
2023-04-15T16:51:00.717Z,1.87
2023-04-15T16:53:30.251Z,1.90
2023-04-15T16:55:59.292Z,1.80
2023-04-15T16:58:28.936Z,1.80
2023-04-15T17:00:59.831Z,2.10
2023-04-15T17:03:29.261Z,1.80
2023-04-15T17:05:58.491Z,2.07
2023-04-15T17:08:27.652Z,2.20
2023-04-15T17:10:56.694Z,2.60
2023-04-15T17:13:27.098Z,2.57
2023-04-15T17:15:56.163Z,2.20
2023-04-15T17:18:26.675Z,2.40
2023-04-15T17:20:56.440Z,2.30
2023-04-15T17:23:26.144Z,2.33
2023-04-15T17:25:55.311Z,2.90
2023-04-15T17:28:24.009Z,2.50
2023-04-15T17:30:52.733Z,2.97
2023-04-15T17:33:56.410Z,2.33
2023-04-15T17:36:11.575Z,2.90
2023-04-15T17:38:40.190Z,1.97
2023-04-15T17:41:08.818Z,2.10
2023-04-15T17:43:37.447Z,2.17
2023-04-15T17:46:07.676Z,1.87
2023-04-15T17:48:36.295Z,2.80
2023-04-15T17:51:04.876Z,3.50
2023-04-15T17:53:34.901Z,3.37
2023-04-15T17:56:03.573Z,2.70
2023-04-15T17:58:32.367Z,3.50
2023-04-15T18:01:01.019Z,3.17
2023-04-15T18:03:29.872Z,3.00
2023-04-15T18:05:59.470Z,3.20
2023-04-15T18:08:28.464Z,3.10
2023-04-15T18:10:58.496Z,2.63
2023-04-15T18:13:27.139Z,3.07
2023-04-15T18:15:56.516Z,2.60
2023-04-15T18:18:25.170Z,2.60
2023-04-15T18:20:53.738Z,2.40
2023-04-15T18:23:22.452Z,2.03
2023-04-15T18:25:51.100Z,1.73
2023-04-15T18:28:22.559Z,1.23
2023-04-15T18:30:51.290Z,1.37
2023-04-15T18:33:20.924Z,1.40
2023-04-15T18:35:50.096Z,1.30
2023-04-15T18:38:18.885Z,1.13
2023-04-15T18:40:48.089Z,1.80
2023-04-15T18:43:16.856Z,1.60
2023-04-15T18:45:47.034Z,1.70
2023-04-15T18:48:15.968Z,2.13
2023-04-15T18:50:44.647Z,1.70
2023-04-15T18:53:13.278Z,2.50
2023-04-15T18:55:42.015Z,2.40
2023-04-15T18:58:10.909Z,2.40
2023-04-15T19:00:41.741Z,2.50
2023-04-15T19:03:12.245Z,2.90
2023-04-15T19:05:42.166Z,2.60
2023-04-15T19:08:11.651Z,2.20
2023-04-15T19:10:40.444Z,1.90
2023-04-15T19:13:09.196Z,2.77
2023-04-15T19:15:37.836Z,2.73
2023-04-15T19:18:10.478Z,2.80
2023-04-15T19:20:40.980Z,2.70
2023-04-15T19:23:09.636Z,2.60
2023-04-15T19:25:39.189Z,2.50
2023-04-15T19:28:08.098Z,2.73
2023-04-15T19:30:37.010Z,2.50
2023-04-15T19:33:06.457Z,2.43
2023-04-15T19:35:36.072Z,2.60
2023-04-15T19:38:07.983Z,3.00
2023-04-15T19:40:36.638Z,2.50
2023-04-15T19:43:05.324Z,3.00
2023-04-15T19:45:35.299Z,3.30
2023-04-15T19:48:04.070Z,3.20
2023-04-15T19:50:33.088Z,3.13
2023-04-15T19:53:01.704Z,3.60
2023-04-15T19:55:31.700Z,3.93
2023-04-15T19:58:00.653Z,3.80
2023-04-15T20:00:29.335Z,3.87
2023-04-15T20:02:58.114Z,4.10
2023-04-15T20:05:26.892Z,4.60
2023-04-15T20:07:55.882Z,4.60
2023-04-15T20:10:25.557Z,4.80
2023-04-15T20:12:55.560Z,5.23
2023-04-15T20:15:24.411Z,5.03
2023-04-15T20:17:53.132Z,5.50
2023-04-15T20:20:22.134Z,4.50
2023-04-15T20:22:52.637Z,4.47
2023-04-15T20:25:21.367Z,5.00
2023-04-15T20:27:50.406Z,5.43
2023-04-15T20:30:23.153Z,5.50
2023-04-15T20:32:51.990Z,5.90
2023-04-15T20:35:20.828Z,5.37
2023-04-15T20:37:50.030Z,5.37
2023-04-15T20:40:18.700Z,7.00
2023-04-15T20:42:47.328Z,5.60
2023-04-15T20:45:16.100Z,5.70
2023-04-15T20:47:46.285Z,6.17
2023-04-15T20:50:15.019Z,5.20
2023-04-15T20:52:43.738Z,5.20
2023-04-15T20:55:12.450Z,5.70
2023-04-15T20:57:41.179Z,5.33
2023-04-15T21:00:11.110Z,5.73
2023-04-15T21:02:39.860Z,5.10
2023-04-15T21:05:10.521Z,5.27
2023-04-15T21:07:39.125Z,5.30
2023-04-15T21:10:08.539Z,5.30
2023-04-15T21:12:37.735Z,5.43
2023-04-15T21:15:07.182Z,5.50
2023-04-15T21:17:36.232Z,5.10
2023-04-15T21:20:05.482Z,5.70
2023-04-15T21:22:35.507Z,5.60
2023-04-15T21:25:04.320Z,5.73
2023-04-15T21:27:33.118Z,5.20
2023-04-15T21:30:01.741Z,6.33
2023-04-15T21:32:30.711Z,6.17
2023-04-15T21:34:59.747Z,5.47
2023-04-15T21:37:28.351Z,5.40
2023-04-15T21:39:58.349Z,6.00
2023-04-15T21:42:27.290Z,6.60
2023-04-15T21:44:56.015Z,5.97
2023-04-15T21:47:24.714Z,6.87
2023-04-15T21:49:53.439Z,6.10
2023-04-15T21:52:22.032Z,7.13
2023-04-15T21:54:50.685Z,6.30
2023-04-15T21:57:20.612Z,6.67
2023-04-15T21:59:49.301Z,6.00
2023-04-15T22:02:18.015Z,6.30
2023-04-15T22:04:46.705Z,6.60
2023-04-15T22:07:15.519Z,6.60
2023-04-15T22:09:44.226Z,6.83
2023-04-15T22:12:12.861Z,6.87
2023-04-15T22:14:42.828Z,6.43
2023-04-15T22:17:11.531Z,7.70
2023-04-15T22:19:41.090Z,7.40
2023-04-15T22:22:09.768Z,8.80
2023-04-15T22:24:40.043Z,8.50
2023-04-15T22:27:09.414Z,8.07
2023-04-15T22:29:38.042Z,8.27
2023-04-15T22:32:08.187Z,8.10
2023-04-15T22:34:36.805Z,7.70
2023-04-15T22:37:05.532Z,7.90
2023-04-15T22:39:34.237Z,8.43
2023-04-15T22:42:03.192Z,8.30
2023-04-15T22:44:31.830Z,8.30
2023-04-15T22:47:00.551Z,7.90
2023-04-15T22:49:30.510Z,8.47
2023-04-15T22:51:59.183Z,8.10
2023-04-15T22:54:27.801Z,7.40
2023-04-15T22:56:56.423Z,8.43
2023-04-15T22:59:25.266Z,8.43
2023-04-15T23:01:54.306Z,8.70
2023-04-15T23:04:26.948Z,8.67
2023-04-15T23:06:57.901Z,8.70
2023-04-15T23:09:27.217Z,8.43
2023-04-15T23:11:56.579Z,8.90
2023-04-15T23:14:26.169Z,8.37
2023-04-15T23:16:54.998Z,9.37
2023-04-15T23:19:23.723Z,8.53
2023-04-15T23:21:52.363Z,8.97
2023-04-15T23:24:22.282Z,9.20
2023-04-15T23:26:52.863Z,8.70
2023-04-15T23:29:21.448Z,8.00
2023-04-15T23:31:50.069Z,8.67
2023-04-15T23:34:19.012Z,8.40
2023-04-15T23:36:47.757Z,8.63
2023-04-15T23:39:16.420Z,8.57
2023-04-15T23:41:46.416Z,8.03
2023-04-15T23:44:14.965Z,7.90
2023-04-15T23:46:43.639Z,7.37
2023-04-15T23:49:12.380Z,7.57
2023-04-15T23:51:41.058Z,8.27
2023-04-15T23:54:09.713Z,8.53
2023-04-15T23:56:38.276Z,8.27
2023-04-15T23:59:08.494Z,8.17
